createdAt,value
2023-05-21T00:01:16.611Z,5.87
2023-05-21T00:04:19.669Z,5.80
2023-05-21T00:07:23.600Z,6.13
2023-05-21T00:10:26.844Z,5.97
2023-05-21T00:13:29.767Z,5.87
2023-05-21T00:16:32.860Z,6.50
2023-05-21T00:19:36.202Z,6.18
2023-05-21T00:22:40.477Z,5.75
2023-05-21T00:25:43.664Z,5.95
2023-05-21T00:28:46.851Z,5.73
2023-05-21T00:31:51.417Z,5.60
2023-05-21T00:34:54.586Z,5.30
2023-05-21T00:37:59.431Z,6.20
2023-05-21T00:41:03.041Z,6.18
2023-05-21T00:44:07.345Z,6.03
2023-05-21T00:47:10.516Z,6.07
2023-05-21T00:50:15.381Z,6.15
2023-05-21T00:53:19.842Z,5.57
2023-05-21T00:56:24.840Z,5.88
2023-05-21T00:59:30.291Z,6.00
2023-05-21T01:02:34.870Z,5.83
2023-05-21T01:05:38.667Z,6.00
2023-05-21T01:08:42.381Z,6.43
2023-05-21T01:11:50.235Z,5.90
2023-05-21T01:14:54.003Z,5.97
2023-05-21T01:17:57.564Z,5.90
2023-05-21T01:21:01.843Z,5.93
2023-05-21T01:24:08.189Z,5.72
2023-05-21T01:27:12.153Z,5.93
2023-05-21T01:30:18.400Z,5.87
2023-05-21T01:33:36.753Z,6.07
2023-05-21T01:36:48.022Z,5.88
2023-05-21T01:39:57.510Z,6.00
2023-05-21T01:43:01.757Z,6.47
2023-05-21T01:46:10.587Z,5.90
2023-05-21T01:49:14.872Z,6.10
2023-05-21T01:52:18.821Z,6.57
2023-05-21T01:55:25.095Z,6.10
2023-05-21T01:58:28.068Z,6.13
2023-05-21T02:01:31.397Z,5.93
2023-05-21T02:04:34.302Z,5.60
2023-05-21T02:07:37.718Z,5.80
2023-05-21T02:10:40.781Z,5.65
2023-05-21T02:13:46.375Z,5.70
2023-05-21T02:16:49.389Z,5.83
2023-05-21T02:19:53.087Z,6.03
2023-05-21T02:22:56.154Z,5.80
2023-05-21T02:25:59.027Z,5.95
2023-05-21T02:29:01.897Z,5.63
2023-05-21T02:32:05.682Z,5.40
2023-05-21T02:35:10.606Z,5.60
2023-05-21T02:38:13.901Z,5.53
2023-05-21T02:41:16.761Z,5.70
2023-05-21T02:44:21.100Z,5.55
2023-05-21T02:47:24.480Z,5.60
2023-05-21T02:50:28.318Z,5.93
2023-05-21T02:53:34.589Z,5.75
2023-05-21T02:56:37.456Z,5.50
2023-05-21T02:59:43.589Z,5.40
2023-05-21T03:02:46.890Z,5.77
2023-05-21T03:05:50.725Z,5.17
2023-05-21T03:08:54.960Z,5.68
2023-05-21T03:11:57.929Z,5.90
2023-05-21T03:15:01.023Z,5.88
2023-05-21T03:18:04.542Z,6.13
2023-05-21T03:21:07.674Z,6.07
2023-05-21T03:24:13.834Z,5.88
2023-05-21T03:27:17.575Z,6.30
2023-05-21T03:30:21.672Z,6.10
2023-05-21T03:33:47.922Z,6.17
2023-05-21T03:36:58.736Z,6.43
2023-05-21T03:40:02.718Z,6.57
2023-05-21T03:43:06.552Z,6.25
2023-05-21T03:46:09.730Z,6.25
2023-05-21T03:49:32.416Z,6.43
2023-05-21T03:52:35.704Z,6.80
2023-05-21T03:55:38.814Z,6.68
2023-05-21T03:58:44.682Z,7.05
2023-05-21T04:01:47.884Z,6.30
2023-05-21T04:04:56.235Z,6.20
2023-05-21T04:08:01.139Z,6.73
2023-05-21T04:11:04.829Z,6.55
2023-05-21T04:14:07.964Z,6.28
2023-05-21T04:17:12.923Z,6.90
2023-05-21T04:20:17.133Z,6.20
2023-05-21T04:23:23.891Z,5.77
2023-05-21T04:26:34.287Z,5.90
2023-05-21T04:29:42.929Z,6.20
2023-05-21T04:32:48.589Z,5.80
2023-05-21T04:35:52.215Z,6.00
2023-05-21T04:38:56.312Z,5.70
2023-05-21T04:41:59.690Z,5.43
2023-05-21T04:45:03.179Z,5.43
2023-05-21T04:48:10.068Z,5.32
2023-05-21T04:51:12.906Z,4.90
2023-05-21T04:54:15.932Z,5.33
2023-05-21T04:57:19.456Z,5.07
2023-05-21T05:00:22.874Z,5.50
2023-05-21T05:03:27.145Z,5.05
2023-05-21T05:06:31.172Z,5.37
2023-05-21T05:09:34.983Z,5.40
2023-05-21T05:12:39.550Z,5.38
2023-05-21T05:15:43.027Z,4.80
2023-05-21T05:18:46.341Z,5.07
2023-05-21T05:21:49.379Z,5.30
2023-05-21T05:24:52.354Z,5.07
2023-05-21T05:27:55.944Z,4.68
2023-05-21T05:30:58.919Z,4.32
2023-05-21T05:34:02.595Z,4.30
2023-05-21T05:37:05.785Z,4.60
2023-05-21T05:40:09.230Z,3.90
2023-05-21T05:43:12.384Z,4.45
2023-05-21T05:46:15.734Z,4.38
2023-05-21T05:49:18.900Z,3.80
2023-05-21T05:52:22.090Z,3.80
2023-05-21T05:55:26.975Z,4.00
2023-05-21T05:58:31.289Z,3.70
2023-05-21T06:01:47.305Z,3.95
2023-05-21T06:04:50.329Z,3.78
2023-05-21T06:07:53.817Z,3.87
2023-05-21T06:10:59.650Z,3.70
2023-05-21T06:14:02.871Z,3.53
2023-05-21T06:17:06.008Z,3.88
2023-05-21T06:20:10.037Z,3.63
2023-05-21T06:23:13.591Z,3.60
2023-05-21T06:26:19.652Z,3.70
2023-05-21T06:29:25.266Z,3.80
2023-05-21T06:32:29.117Z,4.00
2023-05-21T06:35:37.778Z,3.80
2023-05-21T06:38:42.784Z,3.50
2023-05-21T06:41:48.823Z,4.00
2023-05-21T06:45:10.682Z,3.65
2023-05-21T06:48:17.193Z,3.80
2023-05-21T06:51:20.880Z,3.50
2023-05-21T06:54:27.526Z,4.07
2023-05-21T06:57:31.621Z,3.67
2023-05-21T07:00:34.592Z,3.80
2023-05-21T07:03:37.927Z,3.95
2023-05-21T07:06:41.151Z,3.38
2023-05-21T07:09:44.636Z,3.10
2023-05-21T07:12:47.913Z,3.87
2023-05-21T07:15:51.920Z,3.80
2023-05-21T07:18:56.029Z,3.20
2023-05-21T07:21:59.457Z,3.25
2023-05-21T07:25:02.562Z,3.33
2023-05-21T07:28:06.812Z,3.37
2023-05-21T07:31:12.566Z,3.28
2023-05-21T07:34:20.590Z,3.65
2023-05-21T07:37:23.694Z,3.60
2023-05-21T07:40:26.846Z,3.33
2023-05-21T07:43:31.933Z,3.57
2023-05-21T07:46:35.020Z,3.45
2023-05-21T07:49:39.264Z,3.35
2023-05-21T07:52:42.452Z,3.50
2023-05-21T07:55:48.097Z,3.77
2023-05-21T07:58:55.430Z,3.80
2023-05-21T08:01:58.505Z,3.80
2023-05-21T08:05:04.401Z,3.53
2023-05-21T08:08:07.526Z,3.70
2023-05-21T08:11:11.319Z,3.63
2023-05-21T08:14:14.494Z,3.63
2023-05-21T08:17:18.026Z,3.40
2023-05-21T08:20:22.017Z,3.50
2023-05-21T08:23:27.437Z,3.80
2023-05-21T08:26:32.739Z,3.67
2023-05-21T08:29:36.207Z,3.90
2023-05-21T08:32:41.675Z,4.00
2023-05-21T08:35:45.160Z,3.70
2023-05-21T08:39:04.840Z,3.58
2023-05-21T08:42:35.633Z,3.87
2023-05-21T08:45:43.078Z,3.60
2023-05-21T08:48:47.562Z,3.80
2023-05-21T08:51:51.593Z,3.95
2023-05-21T08:54:57.088Z,3.60
2023-05-21T08:58:01.790Z,3.53
2023-05-21T09:01:05.718Z,4.10
2023-05-21T09:07:27.705Z,3.72
2023-05-21T09:11:09.215Z,3.50
2023-05-21T09:14:19.800Z,3.83
2023-05-21T09:17:47.546Z,3.90
2023-05-21T09:21:29.858Z,3.70
2023-05-21T09:24:42.113Z,3.90
2023-05-21T09:27:45.439Z,3.92
2023-05-21T09:30:49.824Z,3.80
2023-05-21T09:33:52.878Z,3.90
2023-05-21T09:36:57.972Z,4.07
2023-05-21T09:40:15.590Z,3.65
2023-05-21T09:43:21.821Z,3.78
2023-05-21T09:46:27.241Z,3.80
2023-05-21T09:49:31.383Z,3.90
2023-05-21T09:52:41.917Z,3.70
2023-05-21T09:55:44.899Z,3.95
2023-05-21T09:58:47.634Z,3.92
2023-05-21T10:01:53.166Z,4.30
2023-05-21T10:04:57.432Z,4.20
2023-05-21T10:08:04.374Z,4.03
2023-05-21T10:11:07.434Z,3.97
2023-05-21T10:14:19.929Z,4.35
2023-05-21T10:17:24.132Z,3.97
2023-05-21T10:20:27.502Z,3.80
2023-05-21T10:23:30.613Z,3.85
2023-05-21T10:26:33.930Z,3.75
2023-05-21T10:29:38.691Z,4.18
2023-05-21T10:32:44.690Z,4.00
2023-05-21T10:35:52.570Z,4.20
2023-05-21T10:38:57.319Z,4.50
2023-05-21T10:42:22.092Z,4.28
2023-05-21T10:45:48.142Z,4.00
2023-05-21T10:49:16.432Z,4.00
2023-05-21T10:52:33.100Z,3.70
2023-05-21T10:56:09.253Z,4.72
2023-05-21T10:59:33.515Z,4.00
2023-05-21T11:02:37.556Z,4.18
2023-05-21T11:05:57.575Z,4.00
2023-05-21T11:09:16.496Z,4.30
2023-05-21T11:12:23.167Z,4.07
2023-05-21T11:15:26.133Z,3.85
2023-05-21T11:18:40.369Z,3.58
2023-05-21T11:21:43.742Z,4.57
2023-05-21T11:24:48.278Z,3.77
2023-05-21T11:27:54.197Z,3.63
2023-05-21T11:31:27.226Z,3.50
2023-05-21T11:34:44.337Z,3.90
2023-05-21T11:37:53.861Z,3.90
2023-05-21T11:41:03.467Z,3.80
2023-05-21T11:44:09.421Z,3.78
2023-05-21T11:47:16.687Z,3.47
2023-05-21T11:50:20.958Z,3.63
2023-05-21T11:53:24.412Z,4.03
2023-05-21T11:56:32.180Z,3.63
2023-05-21T11:59:36.161Z,3.70
2023-05-21T12:02:39.357Z,3.60
2023-05-21T12:05:49.326Z,3.38
2023-05-21T12:08:53.091Z,3.40
2023-05-21T12:11:56.028Z,3.97
2023-05-21T12:15:02.780Z,3.65
2023-05-21T12:18:06.432Z,3.72
2023-05-21T12:21:11.674Z,3.60
2023-05-21T12:24:16.516Z,3.27
2023-05-21T12:27:21.715Z,3.47
2023-05-21T12:30:26.326Z,3.40
2023-05-21T12:33:36.163Z,3.20
2023-05-21T12:36:39.541Z,3.35
2023-05-21T12:39:47.429Z,3.33
2023-05-21T12:42:52.016Z,3.17
2023-05-21T12:45:55.178Z,3.05
2023-05-21T12:48:58.178Z,2.95
2023-05-21T12:52:03.720Z,3.05
2023-05-21T12:55:09.373Z,3.43
2023-05-21T12:58:14.572Z,3.23
2023-05-21T13:01:18.073Z,3.20
2023-05-21T13:04:21.619Z,2.92
2023-05-21T13:07:29.963Z,2.88
2023-05-21T13:10:33.136Z,3.00
2023-05-21T13:13:36.297Z,3.00
2023-05-21T13:16:39.577Z,2.90
2023-05-21T13:19:42.674Z,3.10
2023-05-21T13:22:47.473Z,2.88
2023-05-21T13:25:50.534Z,2.90
2023-05-21T13:28:53.708Z,2.80
2023-05-21T13:31:56.582Z,2.67
2023-05-21T13:34:59.648Z,2.75
2023-05-21T13:38:02.518Z,2.70
2023-05-21T13:41:05.635Z,2.83
2023-05-21T13:44:08.403Z,2.57
2023-05-21T13:47:12.230Z,2.38
2023-05-21T13:50:16.480Z,2.50
2023-05-21T13:53:19.265Z,2.30
2023-05-21T13:56:23.324Z,2.60
2023-05-21T13:59:26.443Z,2.80
2023-05-21T14:02:29.726Z,2.80
2023-05-21T14:05:32.690Z,2.75
2023-05-21T14:08:35.730Z,2.85
2023-05-21T14:11:38.650Z,2.90
2023-05-21T14:14:42.179Z,2.60
2023-05-21T14:17:44.926Z,2.80
2023-05-21T14:20:47.766Z,2.50
2023-05-21T14:23:50.895Z,2.72
2023-05-21T14:26:53.721Z,2.90
2023-05-21T14:29:56.484Z,3.73
2023-05-21T14:32:59.314Z,2.80
2023-05-21T14:36:02.743Z,2.83
2023-05-21T14:39:05.907Z,2.53
2023-05-21T14:42:08.674Z,2.90
2023-05-21T14:45:18.996Z,2.77
2023-05-21T14:48:23.992Z,2.80
2023-05-21T14:51:27.365Z,2.88
2023-05-21T14:54:33.142Z,2.50
2023-05-21T14:57:36.085Z,2.80
2023-05-21T15:00:39.303Z,2.73
2023-05-21T15:03:42.169Z,2.30
2023-05-21T15:06:45.196Z,2.45
2023-05-21T15:09:48.370Z,2.40
2023-05-21T15:12:51.855Z,2.60
2023-05-21T15:15:54.906Z,2.47
2023-05-21T15:18:58.013Z,2.53
2023-05-21T15:22:00.973Z,2.70
2023-05-21T15:25:05.325Z,2.70
2023-05-21T15:28:08.368Z,2.70
2023-05-21T15:31:12.645Z,2.60
2023-05-21T15:34:15.962Z,2.60
2023-05-21T15:37:18.903Z,2.50
2023-05-21T15:40:22.940Z,2.60
2023-05-21T15:43:27.218Z,2.60
2023-05-21T15:46:29.993Z,2.40
2023-05-21T15:49:34.180Z,2.42
2023-05-21T15:52:37.479Z,2.50
2023-05-21T15:55:40.533Z,2.20
2023-05-21T15:58:43.524Z,2.70
2023-05-21T16:01:47.294Z,2.40
2023-05-21T16:04:52.312Z,2.40
2023-05-21T16:07:55.500Z,2.22
2023-05-21T16:10:58.676Z,2.80
2023-05-21T16:14:01.847Z,2.70
2023-05-21T16:17:04.912Z,2.50
2023-05-21T16:20:08.422Z,2.50
2023-05-21T16:23:12.518Z,2.72
2023-05-21T16:26:15.586Z,2.60
2023-05-21T16:29:18.759Z,2.70
2023-05-21T16:32:22.360Z,2.40
2023-05-21T16:35:25.627Z,2.85
2023-05-21T16:38:28.598Z,2.40
2023-05-21T16:41:31.879Z,2.60
2023-05-21T16:44:34.948Z,2.67
2023-05-21T16:47:37.794Z,2.70
2023-05-21T16:50:41.217Z,2.70
2023-05-21T16:53:44.289Z,3.00
2023-05-21T16:56:47.396Z,2.78
2023-05-21T16:59:50.732Z,2.80
2023-05-21T17:02:54.770Z,2.93
2023-05-21T17:05:57.920Z,3.00
2023-05-21T17:09:01.872Z,2.78
2023-05-21T17:12:05.086Z,2.80
2023-05-21T17:15:08.565Z,2.90
2023-05-21T17:18:12.330Z,2.97
2023-05-21T17:21:15.788Z,2.85
2023-05-21T17:24:18.921Z,2.72
2023-05-21T17:27:22.292Z,2.88
2023-05-21T17:30:25.471Z,2.70
2023-05-21T17:33:31.733Z,2.87
2023-05-21T17:36:36.059Z,3.28
2023-05-21T17:39:39.616Z,2.58
2023-05-21T17:42:42.707Z,2.50
2023-05-21T17:45:45.976Z,2.77
2023-05-21T17:48:49.446Z,2.63
2023-05-21T17:51:52.724Z,2.78
2023-05-21T17:54:56.011Z,2.97
2023-05-21T17:57:59.290Z,2.90
2023-05-21T18:01:02.975Z,2.83
2023-05-21T18:04:12.328Z,3.00
2023-05-21T18:07:16.295Z,2.63
2023-05-21T18:10:19.577Z,3.25
2023-05-21T18:13:23.060Z,7.43
2023-05-21T18:16:26.790Z,5.80
2023-05-21T18:19:31.640Z,6.37
2023-05-21T18:22:35.139Z,3.97
2023-05-21T18:25:38.551Z,2.95
2023-05-21T18:28:41.909Z,2.70
2023-05-21T18:31:45.940Z,2.60
2023-05-21T18:34:49.977Z,2.20
2023-05-21T18:37:54.000Z,2.63
2023-05-21T18:40:57.078Z,2.42
2023-05-21T18:44:02.038Z,2.60
2023-05-21T18:47:05.409Z,2.37
2023-05-21T18:50:11.731Z,2.43
2023-05-21T18:53:14.905Z,2.60
2023-05-21T18:56:18.390Z,2.50
2023-05-21T18:59:21.867Z,2.17
2023-05-21T19:02:26.606Z,2.33
2023-05-21T19:05:30.195Z,2.57
2023-05-21T19:08:34.163Z,2.30
2023-05-21T19:11:37.747Z,2.42
2023-05-21T19:14:45.118Z,2.50
2023-05-21T19:17:48.732Z,2.47
2023-05-21T19:20:52.279Z,2.23
2023-05-21T19:23:56.073Z,2.30
2023-05-21T19:27:00.357Z,2.30
2023-05-21T19:30:03.561Z,2.42
2023-05-21T19:33:06.726Z,2.47
2023-05-21T19:36:12.138Z,2.40
2023-05-21T19:39:15.121Z,2.30
2023-05-21T19:42:21.636Z,2.00
2023-05-21T19:45:25.593Z,2.35
2023-05-21T19:48:28.857Z,2.10
2023-05-21T19:51:32.051Z,2.17
2023-05-21T19:54:35.106Z,2.17
2023-05-21T19:57:39.821Z,2.30
2023-05-21T20:00:46.859Z,3.92
2023-05-21T20:03:50.522Z,5.23
2023-05-21T20:06:54.255Z,3.30
2023-05-21T20:09:57.802Z,3.55
2023-05-21T20:13:04.025Z,2.75
2023-05-21T20:16:07.828Z,2.40
2023-05-21T20:19:11.372Z,2.30
2023-05-21T20:22:18.050Z,2.30
2023-05-21T20:30:59.818Z,2.35
2023-05-21T20:34:13.306Z,2.30
2023-05-21T20:37:16.771Z,2.30
2023-05-21T20:40:20.350Z,2.40
2023-05-21T20:43:24.846Z,2.90
2023-05-21T20:46:38.905Z,2.30
2023-05-21T20:49:44.305Z,2.28
2023-05-21T20:52:48.001Z,2.27
2023-05-21T20:55:54.911Z,2.37
2023-05-21T20:59:04.165Z,2.60
2023-05-21T21:02:12.569Z,2.42
2023-05-21T21:05:16.667Z,2.70
2023-05-21T21:08:20.900Z,2.67
2023-05-21T21:11:24.287Z,2.40
2023-05-21T21:14:28.371Z,2.75
2023-05-21T21:17:32.416Z,2.22
2023-05-21T21:20:35.522Z,2.58
2023-05-21T21:23:38.914Z,2.40
2023-05-21T21:26:42.094Z,2.73
2023-05-21T21:29:46.589Z,2.35
2023-05-21T21:32:49.739Z,2.53
2023-05-21T21:35:52.735Z,2.10
2023-05-21T21:38:56.256Z,2.50
2023-05-21T21:41:59.721Z,2.90
2023-05-21T21:45:03.841Z,2.30
2023-05-21T21:48:07.801Z,2.60
2023-05-21T21:51:11.221Z,2.40
2023-05-21T21:54:14.704Z,2.37
2023-05-21T21:57:18.083Z,2.33
2023-05-21T22:00:26.586Z,2.65
2023-05-21T22:03:35.087Z,2.70
2023-05-21T22:06:39.505Z,2.78
2023-05-21T22:09:43.179Z,2.70
2023-05-21T22:12:47.078Z,2.47
2023-05-21T22:15:53.315Z,2.30
2023-05-21T22:18:58.303Z,2.60
2023-05-21T22:22:02.412Z,2.40
2023-05-21T22:25:05.820Z,2.17
2023-05-21T22:28:08.879Z,2.53
2023-05-21T22:31:12.097Z,2.35
2023-05-21T22:34:15.148Z,2.45
2023-05-21T22:37:19.249Z,2.80
2023-05-21T22:40:22.323Z,2.70
2023-05-21T22:43:26.587Z,2.10
2023-05-21T22:46:29.552Z,2.45
2023-05-21T22:49:35.496Z,2.15
2023-05-21T22:52:38.563Z,2.30
2023-05-21T22:55:41.333Z,2.23
2023-05-21T22:58:45.683Z,2.70
2023-05-21T23:01:49.411Z,2.50
2023-05-21T23:04:52.564Z,2.42
2023-05-21T23:07:55.575Z,2.50
2023-05-21T23:10:58.663Z,2.53
2023-05-21T23:14:01.974Z,2.40
2023-05-21T23:17:05.973Z,2.42
2023-05-21T23:20:10.895Z,2.65
2023-05-21T23:23:14.582Z,2.50
2023-05-21T23:26:18.166Z,2.63
2023-05-21T23:29:21.958Z,2.80
2023-05-21T23:32:26.186Z,2.42
2023-05-21T23:35:30.053Z,2.38
2023-05-21T23:38:33.842Z,2.75
2023-05-21T23:41:37.944Z,2.53
2023-05-21T23:44:42.673Z,2.80
2023-05-21T23:47:46.356Z,2.67
2023-05-21T23:50:50.134Z,2.78
2023-05-21T23:53:56.685Z,2.70
2023-05-21T23:57:00.478Z,2.60
